Time;durP1;ratioP1;P1;durP2;ratioP2;P2;SDS_P1;SDS_P2;PMS_P1;PMS_P2;Temp;Humidity;BMP_temperature;BMP_pressure;BME280_temperature;BME280_humidity;BME280_pressure;Samples;Min_cycle;Max_cycle;Signal;HPM_P1;HPM_P2
2021/03/21 00:00:30;;;;;;;99.03;44.90;;;;;;;;;;5013846;28;20069;-63
2021/03/21 00:02:56;;;;;;;96.35;47.00;;;;;;;;;;5029224;28;20065;-63
2021/03/21 00:05:22;;;;;;;107.57;49.22;;;;;;;;;;5013649;28;20018;-63
2021/03/21 00:07:51;;;;;;;103.78;48.05;;;;;;;;;;5013734;28;20021;-63
2021/03/21 00:10:17;;;;;;;96.38;43.08;;;;;;;;;;5013680;28;20026;-63
2021/03/21 00:12:43;;;;;;;99.78;46.45;;;;;;;;;;4996268;28;20014;-63
2021/03/21 00:15:08;;;;;;;98.70;45.30;;;;;;;;;;4996030;28;20084;-63
2021/03/21 00:17:34;;;;;;;87.88;42.65;;;;;;;;;;5013423;28;20104;-63
2021/03/21 00:19:59;;;;;;;101.70;47.42;;;;;;;;;;4995745;28;20065;-63
2021/03/21 00:22:25;;;;;;;109.95;50.75;;;;;;;;;;5012393;28;20037;-63
2021/03/21 00:24:50;;;;;;;120.25;54.22;;;;;;;;;;5013354;28;20018;-63
2021/03/21 00:27:16;;;;;;;116.63;54.28;;;;;;;;;;5013378;28;20018;-63
2021/03/21 00:29:42;;;;;;;117.90;54.33;;;;;;;;;;5013583;28;20057;-63
2021/03/21 00:32:08;;;;;;;118.18;53.38;;;;;;;;;;5013724;28;20037;-63
2021/03/21 00:34:33;;;;;;;103.43;47.83;;;;;;;;;;5013747;28;20033;-63
2021/03/21 00:36:59;;;;;;;96.93;45.83;;;;;;;;;;5013510;28;20071;-63
2021/03/21 00:39:25;;;;;;;98.25;45.65;;;;;;;;;;5013226;28;20058;-63
2021/03/21 00:41:50;;;;;;;95.88;45.60;;;;;;;;;;5013198;28;20025;-63
2021/03/21 00:44:15;;;;;;;97.13;46.92;;;;;;;;;;5013626;28;20030;-63
2021/03/21 00:46:41;;;;;;;97.63;45.83;;;;;;;;;;4995550;28;20109;-63
2021/03/21 00:49:07;;;;;;;99.00;46.42;;;;;;;;;;5013217;28;20033;-63
2021/03/21 00:51:32;;;;;;;97.78;47.08;;;;;;;;;;5013262;28;20022;-63
2021/03/21 00:53:58;;;;;;;107.80;49.33;;;;;;;;;;5028670;28;20026;-63
2021/03/21 00:56:29;;;;;;;105.18;49.90;;;;;;;;;;5013484;28;20045;-63
2021/03/21 00:58:55;;;;;;;104.22;50.22;;;;;;;;;;5013336;28;20415;-63
2021/03/21 01:01:21;;;;;;;106.97;52.00;;;;;;;;;;4995738;28;20053;-63
2021/03/21 01:03:46;;;;;;;104.47;50.78;;;;;;;;;;4995818;28;20022;-63
2021/03/21 01:06:12;;;;;;;107.50;50.47;;;;;;;;;;5013488;28;20029;-63
2021/03/21 01:08:38;;;;;;;109.72;51.72;;;;;;;;;;5013449;28;20514;-63
2021/03/21 01:11:06;;;;;;;110.13;50.88;;;;;;;;;;4995632;28;20021;-63
2021/03/21 01:13:32;;;;;;;105.32;50.15;;;;;;;;;;4995650;28;20034;-62
2021/03/21 01:15:58;;;;;;;108.03;50.58;;;;;;;;;;5010444;28;20055;-63
2021/03/21 01:18:26;;;;;;;112.60;51.38;;;;;;;;;;5012419;28;20394;-63
2021/03/21 01:20:52;;;;;;;113.35;50.35;;;;;;;;;;5012267;28;20018;-63
2021/03/21 01:23:18;;;;;;;112.35;50.88;;;;;;;;;;4994534;28;20032;-63
2021/03/21 01:25:44;;;;;;;114.95;52.58;;;;;;;;;;5011910;28;20469;-63
2021/03/21 01:28:21;;;;;;;113.05;51.88;;;;;;;;;;5012038;28;20029;-63
2021/03/21 01:30:47;;;;;;;114.10;52.10;;;;;;;;;;5012217;28;20029;-63
2021/03/21 01:33:13;;;;;;;114.07;52.55;;;;;;;;;;5012377;28;20022;-64
2021/03/21 01:35:39;;;;;;;120.97;53.35;;;;;;;;;;5015055;28;20040;-64
2021/03/21 01:38:05;;;;;;;118.80;53.50;;;;;;;;;;5014964;28;20026;-64
2021/03/21 01:40:30;;;;;;;124.63;54.80;;;;;;;;;;5015079;28;20036;-63
2021/03/21 01:42:56;;;;;;;118.38;52.30;;;;;;;;;;5015290;28;20014;-63
2021/03/21 01:45:30;;;;;;;115.03;52.30;;;;;;;;;;5030285;28;20091;-64
2021/03/21 01:47:57;;;;;;;111.90;52.03;;;;;;;;;;5030322;28;20069;-63
2021/03/21 01:50:38;;;;;;;114.10;53.25;;;;;;;;;;5015000;28;20014;-63
2021/03/21 01:53:03;;;;;;;117.05;51.78;;;;;;;;;;5015150;28;20026;-64
2021/03/21 01:55:29;;;;;;;108.80;50.78;;;;;;;;;;5014951;28;20109;-64
2021/03/21 01:57:56;;;;;;;107.53;49.35;;;;;;;;;;5014938;28;20045;-64
2021/03/21 02:00:21;;;;;;;104.43;50.85;;;;;;;;;;5014919;28;20022;-63
2021/03/21 02:02:47;;;;;;;112.45;50.60;;;;;;;;;;5015078;28;20022;-63
2021/03/21 02:05:13;;;;;;;116.93;51.70;;;;;;;;;;4997302;28;20068;-62
2021/03/21 02:07:42;;;;;;;106.30;50.42;;;;;;;;;;5014823;28;20033;-62
2021/03/21 02:10:10;;;;;;;106.50;50.05;;;;;;;;;;4997023;28;20463;-62
2021/03/21 02:12:37;;;;;;;108.70;51.33;;;;;;;;;;5014576;28;20034;-62
2021/03/21 02:15:14;;;;;;;107.85;49.97;;;;;;;;;;5029927;28;20029;-62
2021/03/21 02:17:43;;;;;;;112.18;50.45;;;;;;;;;;4989879;28;736481;-62
2021/03/21 02:20:12;;;;;;;105.82;48.55;;;;;;;;;;5015714;28;20029;-62
2021/03/21 02:22:44;;;;;;;111.18;53.35;;;;;;;;;;5015550;28;20430;-62
2021/03/21 02:25:28;;;;;;;110.30;51.13;;;;;;;;;;5015571;28;20106;-63
2021/03/21 02:28:06;;;;;;;111.75;48.97;;;;;;;;;;5015588;28;20435;-63
2021/03/21 02:30:38;;;;;;;110.95;50.35;;;;;;;;;;5015608;28;20026;-63
2021/03/21 02:33:15;;;;;;;116.93;51.97;;;;;;;;;;5015908;28;20073;-63
2021/03/21 02:35:41;;;;;;;107.68;50.88;;;;;;;;;;5015274;28;20022;-63
2021/03/21 02:38:09;;;;;;;111.47;50.03;;;;;;;;;;4998101;28;20116;-63
2021/03/21 02:40:41;;;;;;;109.05;51.28;;;;;;;;;;5015372;28;20045;-63
2021/03/21 02:43:09;;;;;;;116.85;55.05;;;;;;;;;;4997813;28;20038;-63
2021/03/21 02:45:38;;;;;;;99.90;49.47;;;;;;;;;;5014458;28;20041;-63
2021/03/21 02:48:14;;;;;;;109.10;51.13;;;;;;;;;;5015102;28;20030;-64
2021/03/21 02:50:46;;;;;;;102.00;49.92;;;;;;;;;;5015356;28;20421;-64
2021/03/21 02:53:18;;;;;;;108.90;52.92;;;;;;;;;;5015120;28;20084;-64
2021/03/21 02:55:45;;;;;;;115.72;54.83;;;;;;;;;;5006955;28;20478;-64
2021/03/21 02:58:29;;;;;;;108.70;53.03;;;;;;;;;;5014803;28;20026;-64
2021/03/21 03:00:57;;;;;;;111.38;52.28;;;;;;;;;;5015105;28;20022;-64
2021/03/21 03:03:23;;;;;;;107.53;52.08;;;;;;;;;;5015173;28;20125;-64
2021/03/21 03:05:51;;;;;;;104.00;50.45;;;;;;;;;;4998023;28;20076;-64
2021/03/21 03:08:19;;;;;;;100.47;47.55;;;;;;;;;;4997513;28;20017;-63
2021/03/21 03:10:50;;;;;;;105.35;48.67;;;;;;;;;;5014927;28;20026;-63
2021/03/21 03:13:19;;;;;;;115.70;50.30;;;;;;;;;;4997496;28;20048;-63
2021/03/21 03:15:44;;;;;;;104.75;48.42;;;;;;;;;;5014584;28;20014;-63
2021/03/21 03:18:16;;;;;;;105.22;50.38;;;;;;;;;;5014707;28;20037;-63
2021/03/21 03:20:50;;;;;;;109.55;50.83;;;;;;;;;;5014821;28;20512;-63
2021/03/21 03:23:28;;;;;;;108.50;51.58;;;;;;;;;;5014936;28;20034;-63
2021/03/21 03:26:06;;;;;;;111.68;51.55;;;;;;;;;;5014473;28;20385;-63
2021/03/21 03:28:41;;;;;;;107.25;50.30;;;;;;;;;;5014447;28;20026;-62
2021/03/21 03:31:08;;;;;;;101.65;49.03;;;;;;;;;;5014964;28;20073;-62
2021/03/21 03:33:35;;;;;;;102.60;48.53;;;;;;;;;;5029739;28;20076;-62
2021/03/21 03:36:02;;;;;;;103.78;49.47;;;;;;;;;;4996969;28;20485;-62
2021/03/21 03:38:27;;;;;;;101.07;48.75;;;;;;;;;;4996895;28;20026;-62
2021/03/21 03:40:56;;;;;;;104.95;47.58;;;;;;;;;;5014286;28;20524;-62
2021/03/21 03:43:28;;;;;;;105.20;48.88;;;;;;;;;;5014291;28;20026;-63
2021/03/21 03:46:00;;;;;;;98.10;47.65;;;;;;;;;;5014438;28;20109;-63
2021/03/21 03:48:34;;;;;;;101.60;47.72;;;;;;;;;;5029351;28;20054;-62
2021/03/21 03:51:06;;;;;;;105.10;47.95;;;;;;;;;;5014229;28;20026;-62
2021/03/21 03:53:37;;;;;;;104.32;48.10;;;;;;;;;;5014175;28;20034;-62
2021/03/21 03:56:11;;;;;;;101.03;45.60;;;;;;;;;;5014058;28;20030;-62
2021/03/21 03:58:51;;;;;;;104.03;45.67;;;;;;;;;;5029328;28;20486;-62
2021/03/21 04:01:26;;;;;;;102.25;46.78;;;;;;;;;;5013907;28;20038;-62
2021/03/21 04:03:56;;;;;;;100.05;46.10;;;;;;;;;;5014095;28;20045;-62
2021/03/21 04:06:28;;;;;;;99.55;46.15;;;;;;;;;;5013870;28;20394;-62
2021/03/21 04:09:04;;;;;;;99.80;45.55;;;;;;;;;;5029185;28;20536;-62
2021/03/21 04:11:30;;;;;;;101.10;45.58;;;;;;;;;;5013796;28;20033;-62
2021/03/21 04:14:02;;;;;;;90.95;44.40;;;;;;;;;;5013642;28;20017;-62
2021/03/21 04:16:32;;;;;;;91.90;43.03;;;;;;;;;;5013120;28;20494;-63
2021/03/21 04:19:18;;;;;;;96.43;43.10;;;;;;;;;;4996375;28;20097;-62
2021/03/21 04:21:58;;;;;;;95.85;45.13;;;;;;;;;;5013563;28;21968;-62
2021/03/21 04:24:35;;;;;;;93.38;45.90;;;;;;;;;;4996270;28;20022;-62
2021/03/21 04:27:03;;;;;;;98.35;44.83;;;;;;;;;;4995933;28;20453;-61
2021/03/21 04:29:42;;;;;;;91.03;43.30;;;;;;;;;;5013654;28;20101;-62
2021/03/21 04:32:09;;;;;;;94.47;43.65;;;;;;;;;;5013632;28;20030;-62
2021/03/21 04:34:39;;;;;;;94.55;43.60;;;;;;;;;;5013576;28;20045;-62
2021/03/21 04:37:04;;;;;;;109.15;49.08;;;;;;;;;;5013412;28;20470;-62
2021/03/21 04:39:31;;;;;;;141.13;59.47;;;;;;;;;;5013571;28;20036;-62
2021/03/21 04:42:09;;;;;;;143.10;59.47;;;;;;;;;;5028737;28;20037;-62
2021/03/21 04:44:56;;;;;;;135.20;57.08;;;;;;;;;;5028812;28;20092;-62
2021/03/21 04:47:27;;;;;;;119.72;53.53;;;;;;;;;;4992077;28;20042;-63
2021/03/21 04:49:57;;;;;;;117.72;52.15;;;;;;;;;;5013475;28;20026;-62
2021/03/21 04:52:32;;;;;;;99.97;46.63;;;;;;;;;;5013628;28;20044;-62
2021/03/21 04:55:00;;;;;;;84.50;39.92;;;;;;;;;;5013662;28;20304;-62
2021/03/21 04:57:43;;;;;;;76.78;38.13;;;;;;;;;;5013301;28;20021;-62
2021/03/21 05:00:15;;;;;;;72.65;36.17;;;;;;;;;;5013270;28;20550;-62
2021/03/21 05:02:43;;;;;;;71.07;34.15;;;;;;;;;;5013396;28;20033;-62
2021/03/21 05:05:27;;;;;;;68.75;33.15;;;;;;;;;;5013370;28;20080;-64
2021/03/21 05:07:56;;;;;;;68.68;32.45;;;;;;;;;;4995852;28;20405;-63
2021/03/21 05:10:35;;;;;;;58.83;31.15;;;;;;;;;;5016577;28;20518;-63
2021/03/21 05:13:11;;;;;;;56.17;28.90;;;;;;;;;;4999430;28;20061;-63
2021/03/21 05:15:58;;;;;;;57.38;28.25;;;;;;;;;;5016857;28;20026;-63
2021/03/21 05:18:26;;;;;;;54.30;28.10;;;;;;;;;;5016806;28;20042;-63
2021/03/21 05:21:12;;;;;;;51.40;26.80;;;;;;;;;;5016690;28;20033;-63
2021/03/21 05:23:43;;;;;;;42.47;22.67;;;;;;;;;;5016704;28;20130;-63
2021/03/21 05:26:11;;;;;;;38.33;20.65;;;;;;;;;;5016670;28;20034;-63
2021/03/21 05:28:56;;;;;;;33.35;18.77;;;;;;;;;;5016538;28;20367;-63
2021/03/21 05:31:23;;;;;;;28.95;16.80;;;;;;;;;;5016550;28;20469;-63
2021/03/21 05:33:49;;;;;;;27.45;15.45;;;;;;;;;;5016548;28;20480;-63
2021/03/21 05:36:17;;;;;;;23.35;14.18;;;;;;;;;;5016274;28;20030;-63
2021/03/21 05:38:49;;;;;;;25.92;14.23;;;;;;;;;;5016265;28;20076;-62
2021/03/21 05:41:34;;;;;;;24.70;13.25;;;;;;;;;;5016450;28;20030;-63
2021/03/21 05:44:00;;;;;;;19.98;11.40;;;;;;;;;;5016644;28;20104;-63
2021/03/21 05:46:25;;;;;;;20.17;11.20;;;;;;;;;;5016266;28;20473;-63
2021/03/21 05:49:26;;;;;;;18.77;10.35;;;;;;;;;;5016333;28;20057;-63
2021/03/21 05:51:53;;;;;;;;;;;;;;;;;;4975676;28;20041;-63
2021/03/21 05:54:37;;;;;;;16.80;9.73;;;;;;;;;;5007925;28;19912;-63
2021/03/21 05:57:21;;;;;;;16.60;9.60;;;;;;;;;;5015972;28;20355;-63
2021/03/21 05:59:47;;;;;;;20.17;11.10;;;;;;;;;;5015850;28;20467;-63
2021/03/21 06:02:31;;;;;;;18.55;9.60;;;;;;;;;;4998556;28;20044;-63
2021/03/21 06:05:03;;;;;;;12.07;8.07;;;;;;;;;;5016067;28;20477;-63
2021/03/21 06:07:29;;;;;;;19.52;9.43;;;;;;;;;;5031638;28;20033;-63
2021/03/21 06:10:21;;;;;;;14.90;8.82;;;;;;;;;;5031100;28;20033;-63
2021/03/21 06:12:50;;;;;;;15.10;8.88;;;;;;;;;;4999956;28;20049;-63
2021/03/21 06:15:34;;;;;;;13.93;8.13;;;;;;;;;;5015955;28;20034;-63
2021/03/21 06:17:59;;;;;;;16.20;8.85;;;;;;;;;;5030973;28;20074;-63
2021/03/21 06:20:31;;;;;;;16.83;8.43;;;;;;;;;;5014182;28;20560;-62
2021/03/21 06:23:22;;;;;;;12.02;7.18;;;;;;;;;;5015579;28;20080;-63
2021/03/21 06:26:06;;;;;;;10.70;7.47;;;;;;;;;;4997932;28;20450;-63
2021/03/21 06:28:48;;;;;;;13.88;7.35;;;;;;;;;;5015356;28;20034;-62
2021/03/21 06:31:32;;;;;;;10.77;7.30;;;;;;;;;;5015594;28;20093;-62
2021/03/21 06:34:02;;;;;;;11.25;7.00;;;;;;;;;;5015273;28;20073;-62
2021/03/21 06:36:28;;;;;;;;;;;;;;;;;;5015766;28;20025;-62
2021/03/21 06:39:13;;;;;;;11.70;6.45;;;;;;;;;;5015660;28;19909;-62
2021/03/21 06:41:44;;;;;;;9.73;6.32;;;;;;;;;;5015325;28;20029;-62
2021/03/21 06:44:16;;;;;;;10.77;7.03;;;;;;;;;;5015329;28;20441;-62
2021/03/21 06:46:42;;;;;;;11.50;6.65;;;;;;;;;;5015505;28;20529;-62
2021/03/21 06:49:44;;;;;;;9.70;6.50;;;;;;;;;;5015288;28;20021;-62
2021/03/21 06:52:18;;;;;;;10.55;5.65;;;;;;;;;;4974195;28;20148;-62
2021/03/21 06:54:50;;;;;;;9.38;5.85;;;;;;;;;;5001258;28;20053;-62
2021/03/21 06:57:34;;;;;;;8.43;5.35;;;;;;;;;;5011457;28;20026;-62
2021/03/21 07:00:00;;;;;;;8.95;5.40;;;;;;;;;;5026626;28;20100;-62
2021/03/21 07:02:54;;;;;;;9.13;5.85;;;;;;;;;;5026438;28;20022;-62
2021/03/21 07:05:38;;;;;;;10.65;6.03;;;;;;;;;;5026490;28;20445;-62
2021/03/21 07:08:22;;;;;;;10.18;5.53;;;;;;;;;;5011590;28;20112;-62
2021/03/21 07:11:07;;;;;;;8.10;5.43;;;;;;;;;;5026696;28;20029;-62
2021/03/21 07:13:42;;;;;;;9.50;5.88;;;;;;;;;;5011046;28;20041;-62
2021/03/21 07:16:12;;;;;;;10.38;5.20;;;;;;;;;;5011146;28;20038;-62
2021/03/21 07:18:57;;;;;;;10.70;6.30;;;;;;;;;;5011297;28;20038;-62
2021/03/21 07:21:36;;;;;;;8.80;5.03;;;;;;;;;;5010468;28;20409;-62
2021/03/21 07:24:17;;;;;;;7.97;5.13;;;;;;;;;;5010742;28;20059;-62
2021/03/21 07:27:02;;;;;;;6.70;4.65;;;;;;;;;;5010506;28;20603;-62
2021/03/21 07:29:36;;;;;;;6.88;4.30;;;;;;;;;;5010900;28;20050;-62
2021/03/21 07:32:14;;;;;;;7.15;4.47;;;;;;;;;;4992382;28;20140;-62
2021/03/21 07:34:53;;;;;;;8.45;5.05;;;;;;;;;;4994645;28;20081;-65
2021/03/21 07:37:38;;;;;;;7.40;5.20;;;;;;;;;;5011062;28;20069;-65
2021/03/21 07:40:16;;;;;;;7.68;4.95;;;;;;;;;;5010819;28;20044;-65
2021/03/21 07:42:50;;;;;;;9.77;6.45;;;;;;;;;;5010402;28;20072;-65
2021/03/21 07:45:26;;;;;;;4.50;3.08;;;;;;;;;;5010925;28;20109;-65
2021/03/21 07:47:51;;;;;;;8.30;5.18;;;;;;;;;;5025904;28;20033;-65
2021/03/21 07:50:27;;;;;;;6.63;4.18;;;;;;;;;;5010664;28;20026;-65
2021/03/21 07:53:11;;;;;;;7.95;4.75;;;;;;;;;;5010553;28;20030;-65
2021/03/21 07:55:46;;;;;;;4.88;3.42;;;;;;;;;;4992888;28;20085;-65
2021/03/21 07:58:11;;;;;;;7.75;4.80;;;;;;;;;;5010337;28;20791;-67
2021/03/21 08:00:37;;;;;;;6.35;4.13;;;;;;;;;;5010495;28;20037;-67
2021/03/21 08:03:11;;;;;;;5.15;3.72;;;;;;;;;;4992420;28;20460;-65
2021/03/21 08:05:37;;;;;;;7.10;4.65;;;;;;;;;;5010363;28;20025;-62
2021/03/21 08:08:03;;;;;;;7.57;4.60;;;;;;;;;;5010738;28;20025;-63
2021/03/21 08:10:30;;;;;;;2.67;2.22;;;;;;;;;;5010733;28;20051;-65
2021/03/21 08:12:58;;;;;;;6.10;3.45;;;;;;;;;;5010691;28;20022;-67
2021/03/21 08:15:25;;;;;;;3.85;3.30;;;;;;;;;;5010715;28;20038;-66
2021/03/21 08:17:50;;;;;;;3.65;2.47;;;;;;;;;;5010810;28;20054;-67
2021/03/21 08:20:21;;;;;;;5.65;3.78;;;;;;;;;;5010878;28;20497;-66
2021/03/21 08:22:49;;;;;;;3.72;3.38;;;;;;;;;;5009084;28;20037;-66
2021/03/21 08:25:27;;;;;;;6.07;4.32;;;;;;;;;;5010794;28;20385;-67
2021/03/21 08:27:53;;;;;;;5.30;4.05;;;;;;;;;;5010784;28;20366;-67
2021/03/21 08:30:23;;;;;;;6.43;4.57;;;;;;;;;;5011183;28;20024;-67
2021/03/21 08:33:09;;;;;;;10.02;4.95;;;;;;;;;;4993324;28;20077;-67
2021/03/21 08:35:35;;;;;;;7.60;5.10;;;;;;;;;;5010679;28;20077;-68
2021/03/21 08:38:13;;;;;;;6.35;4.45;;;;;;;;;;5009513;28;20030;-67
2021/03/21 08:40:39;;;;;;;5.47;3.70;;;;;;;;;;4989468;28;20040;-67
2021/03/21 08:43:25;;;;;;;5.68;4.55;;;;;;;;;;5020481;28;20537;-67
2021/03/21 08:46:29;;;;;;;20.63;10.10;;;;;;;;;;5010927;28;20029;-67
2021/03/21 08:49:13;;;;;;;10.60;6.05;;;;;;;;;;4989320;28;20094;-67
2021/03/21 08:51:40;;;;;;;7.63;4.65;;;;;;;;;;4973623;28;20046;-67
2021/03/21 08:54:22;;;;;;;6.35;4.50;;;;;;;;;;5002424;28;20080;-67
2021/03/21 08:56:58;;;;;;;5.50;3.90;;;;;;;;;;4995017;28;20065;-67
2021/03/21 08:59:28;;;;;;;5.00;4.22;;;;;;;;;;5011897;28;20025;-67
2021/03/21 09:01:57;;;;;;;2.80;2.45;;;;;;;;;;4994841;28;20066;-67
2021/03/21 09:04:24;;;;;;;6.70;4.90;;;;;;;;;;5027281;28;20486;-67
2021/03/21 09:06:49;;;;;;;6.75;4.63;;;;;;;;;;5027418;28;20034;-67
2021/03/21 09:09:14;;;;;;;5.93;4.40;;;;;;;;;;5027296;28;20022;-66
2021/03/21 09:11:40;;;;;;;4.18;2.85;;;;;;;;;;5012399;28;20040;-67
2021/03/21 09:14:05;;;;;;;5.80;3.95;;;;;;;;;;5012002;28;20018;-66
2021/03/21 09:16:50;;;;;;;6.93;4.22;;;;;;;;;;5011685;28;20050;-67
2021/03/21 09:19:17;;;;;;;9.18;4.75;;;;;;;;;;5012433;28;20426;-66
2021/03/21 09:21:44;;;;;;;7.97;5.22;;;;;;;;;;4994343;28;20133;-66
2021/03/21 09:24:16;;;;;;;7.32;5.03;;;;;;;;;;5011806;28;20030;-66
2021/03/21 09:26:45;;;;;;;7.82;5.47;;;;;;;;;;5011921;28;20026;-66
2021/03/21 09:29:15;;;;;;;7.30;4.90;;;;;;;;;;5011872;28;20048;-66
2021/03/21 09:31:42;;;;;;;6.60;4.50;;;;;;;;;;5013842;28;20057;-67
2021/03/21 09:34:13;;;;;;;6.75;4.03;;;;;;;;;;5014673;28;20256;-66
2021/03/21 09:36:39;;;;;;;8.13;4.95;;;;;;;;;;5014235;28;20045;-66
2021/03/21 09:39:05;;;;;;;9.73;4.78;;;;;;;;;;5014423;28;20022;-66
2021/03/21 09:41:31;;;;;;;7.88;5.15;;;;;;;;;;5029181;28;20052;-66
2021/03/21 09:44:00;;;;;;;15.40;8.38;;;;;;;;;;5014071;28;20113;-67
2021/03/21 09:46:39;;;;;;;7.47;4.65;;;;;;;;;;5029254;28;20026;-66
2021/03/21 09:49:07;;;;;;;5.18;3.38;;;;;;;;;;5014369;28;20049;-67
2021/03/21 09:51:42;;;;;;;2.92;2.63;;;;;;;;;;5013734;28;20018;-66
2021/03/21 09:54:16;;;;;;;3.80;2.90;;;;;;;;;;5013894;28;20022;-67
2021/03/21 09:56:45;;;;;;;6.28;4.53;;;;;;;;;;4995829;28;20403;-66
2021/03/21 09:59:12;;;;;;;7.28;4.85;;;;;;;;;;5013778;28;20057;-67
2021/03/21 10:01:43;;;;;;;9.65;5.63;;;;;;;;;;5029093;28;20386;-67
2021/03/21 10:04:23;;;;;;;7.40;5.75;;;;;;;;;;5028993;28;20026;-66
2021/03/21 10:06:50;;;;;;;8.15;5.32;;;;;;;;;;5013547;28;20084;-66
2021/03/21 10:09:20;;;;;;;8.30;5.32;;;;;;;;;;5012602;28;20026;-63
2021/03/21 10:12:06;;;;;;;7.18;4.10;;;;;;;;;;5026939;28;20060;-63
2021/03/21 10:14:32;;;;;;;11.13;6.90;;;;;;;;;;5012745;28;20654;-63
2021/03/21 10:17:20;;;;;;;6.82;3.42;;;;;;;;;;5014643;28;20092;-61
2021/03/21 10:19:46;;;;;;;9.73;6.00;;;;;;;;;;5016037;28;20085;-64
2021/03/21 10:22:20;;;;;;;7.43;4.75;;;;;;;;;;5015643;28;20038;-64
2021/03/21 10:24:53;;;;;;;8.18;4.93;;;;;;;;;;5015720;28;20026;-64
2021/03/21 10:27:23;;;;;;;5.45;3.70;;;;;;;;;;5015976;28;20057;-63
2021/03/21 10:29:51;;;;;;;5.13;4.40;;;;;;;;;;5016040;28;20026;-63
2021/03/21 10:32:27;;;;;;;8.75;5.80;;;;;;;;;;4998065;28;20025;-63
2021/03/21 10:34:53;;;;;;;7.32;5.03;;;;;;;;;;4997929;28;20379;-63
2021/03/21 10:37:37;;;;;;;8.93;4.97;;;;;;;;;;5015457;28;20382;-63
2021/03/21 10:40:04;;;;;;;5.80;4.80;;;;;;;;;;4997569;28;20454;-63
2021/03/21 10:42:55;;;;;;;5.53;4.00;;;;;;;;;;5014810;28;20652;-63
2021/03/21 10:45:33;;;;;;;7.32;4.60;;;;;;;;;;5006392;28;20133;-63
2021/03/21 10:47:59;;;;;;;8.55;5.65;;;;;;;;;;5014949;28;20053;-63
2021/03/21 10:50:28;;;;;;;7.10;4.35;;;;;;;;;;5015295;28;20018;-63
2021/03/21 10:53:12;;;;;;;4.78;3.72;;;;;;;;;;5029971;28;20072;-63
2021/03/21 10:55:40;;;;;;;11.43;6.45;;;;;;;;;;5014787;28;20029;-63
2021/03/21 10:58:23;;;;;;;8.50;6.13;;;;;;;;;;5014831;28;20497;-63
2021/03/21 11:01:07;;;;;;;6.78;4.03;;;;;;;;;;4997394;28;20030;-63
2021/03/21 11:03:32;;;;;;;7.13;5.10;;;;;;;;;;5030115;28;20116;-63
2021/03/21 11:05:58;;;;;;;6.97;4.45;;;;;;;;;;5014375;28;20493;-63
2021/03/21 11:08:28;;;;;;;7.47;5.15;;;;;;;;;;5014307;28;20121;-63
2021/03/21 11:10:55;;;;;;;4.72;3.38;;;;;;;;;;4997160;28;20478;-63
2021/03/21 11:13:28;;;;;;;6.90;4.07;;;;;;;;;;5014649;28;20084;-63
2021/03/21 11:15:54;;;;;;;9.30;5.97;;;;;;;;;;5014294;28;20142;-63
2021/03/21 11:18:25;;;;;;;5.43;2.97;;;;;;;;;;5014546;28;20466;-63
2021/03/21 11:21:02;;;;;;;4.57;3.53;;;;;;;;;;4997110;28;20041;-63
2021/03/21 11:23:28;;;;;;;6.18;4.45;;;;;;;;;;5014443;28;20026;-63
2021/03/21 11:25:54;;;;;;;4.97;3.97;;;;;;;;;;4996774;28;20022;-63
2021/03/21 11:28:27;;;;;;;10.23;6.05;;;;;;;;;;5014392;28;20033;-63
2021/03/21 11:30:55;;;;;;;4.47;3.40;;;;;;;;;;5029512;28;20438;-63
2021/03/21 11:33:37;;;;;;;6.30;4.90;;;;;;;;;;5014236;28;20474;-63
2021/03/21 11:36:21;;;;;;;3.33;2.83;;;;;;;;;;5014309;28;20026;-63
2021/03/21 11:38:47;;;;;;;7.97;5.20;;;;;;;;;;5014369;28;20044;-63
2021/03/21 11:41:28;;;;;;;5.32;3.20;;;;;;;;;;5012366;28;20057;-63
2021/03/21 11:43:53;;;;;;;;;;;;;;;;;;5014555;28;20030;-63
2021/03/21 11:46:28;;;;;;;8.07;5.78;;;;;;;;;;5014118;28;19912;-63
2021/03/21 11:48:55;;;;;;;6.45;4.78;;;;;;;;;;4996356;28;20041;-63
2021/03/21 11:51:20;;;;;;;5.57;4.80;;;;;;;;;;5029104;28;20088;-63
2021/03/21 11:53:47;;;;;;;8.82;5.70;;;;;;;;;;5013938;28;20037;-63
2021/03/21 11:56:27;;;;;;;10.15;5.50;;;;;;;;;;5013883;28;20053;-63
2021/03/21 11:58:57;;;;;;;5.95;4.30;;;;;;;;;;5013802;28;20034;-63
2021/03/21 12:01:52;;;;;;;4.68;2.33;;;;;;;;;;5013884;28;20114;-63
2021/03/21 12:04:38;;;;;;;5.63;4.20;;;;;;;;;;5008862;28;20045;-63
2021/03/21 12:07:04;;;;;;;7.55;5.28;;;;;;;;;;5013558;28;20038;-63
2021/03/21 12:09:37;;;;;;;6.05;4.78;;;;;;;;;;5013798;28;20053;-63
2021/03/21 12:12:26;;;;;;;8.23;5.05;;;;;;;;;;5013534;28;20026;-63
2021/03/21 12:14:51;;;;;;;5.82;4.85;;;;;;;;;;5010517;28;20072;-63
2021/03/21 12:17:23;;;;;;;8.77;4.97;;;;;;;;;;5013473;28;20410;-64
2021/03/21 12:19:49;;;;;;;7.78;5.55;;;;;;;;;;5013483;28;20605;-64
2021/03/21 12:22:24;;;;;;;5.85;3.97;;;;;;;;;;5013353;28;20025;-64
2021/03/21 12:24:54;;;;;;;7.68;4.97;;;;;;;;;;5013492;28;20486;-64
2021/03/21 12:27:27;;;;;;;6.78;4.90;;;;;;;;;;5013541;28;20018;-64
2021/03/21 12:30:00;;;;;;;7.82;5.60;;;;;;;;;;5013460;28;20032;-64
2021/03/21 12:32:28;;;;;;;8.80;5.45;;;;;;;;;;5028769;28;20026;-64
2021/03/21 12:34:54;;;;;;;6.90;5.38;;;;;;;;;;5012955;28;20049;-64
2021/03/21 12:37:26;;;;;;;8.60;5.72;;;;;;;;;;5013327;28;20494;-64
2021/03/21 12:40:11;;;;;;;9.23;6.57;;;;;;;;;;5028450;28;20030;-64
2021/03/21 12:42:42;;;;;;;7.82;5.95;;;;;;;;;;5013055;28;20481;-64
2021/03/21 12:45:11;;;;;;;5.85;4.60;;;;;;;;;;5013347;28;20057;-64
2021/03/21 12:47:38;;;;;;;5.28;3.88;;;;;;;;;;5013382;28;20014;-64
2021/03/21 12:50:28;;;;;;;5.82;4.82;;;;;;;;;;5013318;28;20026;-64
2021/03/21 12:52:54;;;;;;;9.15;5.43;;;;;;;;;;5013290;28;20045;-64
2021/03/21 12:55:20;;;;;;;7.88;5.68;;;;;;;;;;4995398;28;20033;-64
2021/03/21 12:57:46;;;;;;;10.05;6.65;;;;;;;;;;4995608;28;20470;-64
2021/03/21 13:00:35;;;;;;;12.32;8.27;;;;;;;;;;4995784;28;20083;-64
2021/03/21 13:03:02;;;;;;;7.53;5.63;;;;;;;;;;4995516;28;20057;-64
2021/03/21 13:05:28;;;;;;;8.98;6.25;;;;;;;;;;5013102;28;20022;-64
2021/03/21 13:07:54;;;;;;;8.57;6.18;;;;;;;;;;5012930;28;20500;-64
2021/03/21 13:10:20;;;;;;;7.45;4.93;;;;;;;;;;4995422;28;20018;-64
2021/03/21 13:12:46;;;;;;;10.38;6.93;;;;;;;;;;5013018;28;20117;-64
2021/03/21 13:15:12;;;;;;;7.35;5.30;;;;;;;;;;5012998;28;20114;-64
2021/03/21 13:17:38;;;;;;;9.82;6.88;;;;;;;;;;5012786;28;20054;-64
2021/03/21 13:20:07;;;;;;;9.77;6.47;;;;;;;;;;5012972;28;20069;-64
2021/03/21 13:22:33;;;;;;;8.18;6.05;;;;;;;;;;5027916;28;20112;-64
2021/03/21 13:24:58;;;;;;;10.23;7.13;;;;;;;;;;5012832;28;20021;-64
2021/03/21 13:27:24;;;;;;;9.40;5.75;;;;;;;;;;4995221;28;20026;-64
2021/03/21 13:29:49;;;;;;;5.60;4.28;;;;;;;;;;5013292;28;20030;-64
2021/03/21 13:32:15;;;;;;;10.45;7.18;;;;;;;;;;5016411;28;20030;-64
2021/03/21 13:34:40;;;;;;;7.22;4.72;;;;;;;;;;5016479;28;20032;-64
2021/03/21 13:37:06;;;;;;;13.45;7.07;;;;;;;;;;4998846;28;20073;-64
2021/03/21 13:39:32;;;;;;;14.35;7.82;;;;;;;;;;5016459;28;20085;-64
2021/03/21 13:41:57;;;;;;;9.80;6.40;;;;;;;;;;5016340;28;20057;-64
2021/03/21 13:44:26;;;;;;;11.48;6.80;;;;;;;;;;5016330;28;20014;-64
2021/03/21 13:46:51;;;;;;;9.32;6.88;;;;;;;;;;5016194;28;20474;-64
2021/03/21 13:49:18;;;;;;;7.28;5.30;;;;;;;;;;5016142;28;20021;-64
2021/03/21 13:51:44;;;;;;;5.35;3.58;;;;;;;;;;4998608;28;20022;-64
2021/03/21 13:54:09;;;;;;;8.35;6.65;;;;;;;;;;5016087;28;20026;-64
2021/03/21 13:56:35;;;;;;;4.97;3.83;;;;;;;;;;5016134;28;20451;-64
2021/03/21 13:59:00;;;;;;;10.85;6.93;;;;;;;;;;5016239;28;20032;-64
2021/03/21 14:01:27;;;;;;;7.80;6.35;;;;;;;;;;5016042;28;20022;-64
2021/03/21 14:03:53;;;;;;;6.07;4.93;;;;;;;;;;5015756;28;20022;-64
2021/03/21 14:06:19;;;;;;;7.32;5.93;;;;;;;;;;5015847;28;20085;-64
2021/03/21 14:08:44;;;;;;;7.00;4.80;;;;;;;;;;5015912;28;20034;-64
2021/03/21 14:11:10;;;;;;;6.60;5.07;;;;;;;;;;5015836;28;20033;-64
2021/03/21 14:13:35;;;;;;;6.35;5.38;;;;;;;;;;4998098;28;20108;-64
2021/03/21 14:16:01;;;;;;;7.53;5.65;;;;;;;;;;4997996;28;20104;-64
2021/03/21 14:18:27;;;;;;;8.90;5.82;;;;;;;;;;4998047;28;20034;-64
2021/03/21 14:20:52;;;;;;;9.07;6.10;;;;;;;;;;5015548;28;20049;-64
2021/03/21 14:23:19;;;;;;;8.93;7.32;;;;;;;;;;5014836;28;20034;-65
2021/03/21 14:25:45;;;;;;;8.73;6.78;;;;;;;;;;5015500;28;20389;-64
2021/03/21 14:28:11;;;;;;;13.18;6.93;;;;;;;;;;5015430;28;20121;-64
2021/03/21 14:30:37;;;;;;;9.32;6.60;;;;;;;;;;5015458;28;20490;-64
2021/03/21 14:33:04;;;;;;;8.90;6.90;;;;;;;;;;4998042;28;20037;-64
2021/03/21 14:35:31;;;;;;;12.60;8.40;;;;;;;;;;5015421;28;20494;-64
2021/03/21 14:37:56;;;;;;;7.47;5.53;;;;;;;;;;5015271;28;20029;-64
2021/03/21 14:40:22;;;;;;;8.95;6.70;;;;;;;;;;4997792;28;20037;-64
2021/03/21 14:42:50;;;;;;;9.82;6.90;;;;;;;;;;5014009;28;20442;-64
2021/03/21 14:45:16;;;;;;;10.07;6.85;;;;;;;;;;5015052;28;20022;-64
2021/03/21 14:47:42;;;;;;;11.57;7.78;;;;;;;;;;5030498;28;20026;-64
2021/03/21 14:50:09;;;;;;;11.00;6.30;;;;;;;;;;5015201;28;20369;-64
2021/03/21 14:52:34;;;;;;;12.23;7.50;;;;;;;;;;5013723;28;20034;-64